Time;durP1;ratioP1;P1;durP2;ratioP2;P2;SDS_P1;SDS_P2;PMS_P1;PMS_P2;Temp;Humidity;BMP_temperature;BMP_pressure;BME280_temperature;BME280_humidity;BME280_pressure;Samples;Min_cycle;Max_cycle;Signal;HPM_P1;HPM_P2
2022/08/29 00:01:42;;;;;;;3.07;1.60;;;15.30;99.90;;;;;;4957274;28;20619;-74
2022/08/29 00:04:08;;;;;;;3.67;1.90;;;15.10;99.90;;;;;;4956668;29;20182;-74
2022/08/29 00:06:34;;;;;;;3.83;1.83;;;15.20;99.90;;;;;;4957630;29;20181;-74
2022/08/29 00:09:00;;;;;;;3.47;1.57;;;15.10;99.90;;;;;;4957854;29;20189;-74
2022/08/29 00:11:25;;;;;;;10.50;2.30;;;15.10;99.90;;;;;;4957324;28;20208;-74
2022/08/29 00:13:51;;;;;;;5.30;2.00;;;15.10;99.90;;;;;;4957494;29;20288;-74
2022/08/29 00:16:17;;;;;;;3.90;1.40;;;15.00;99.90;;;;;;4956374;29;20281;-74
2022/08/29 00:18:44;;;;;;;3.20;1.80;;;15.00;99.90;;;;;;4957227;28;20185;-74
2022/08/29 00:21:09;;;;;;;4.63;2.47;;;15.00;99.90;;;;;;4957158;28;20837;-75
2022/08/29 00:23:35;;;;;;;2.40;1.83;;;15.00;99.90;;;;;;4957300;29;20534;-75
2022/08/29 00:26:01;;;;;;;2.70;1.60;;;14.90;99.90;;;;;;4956277;29;20226;-75
2022/08/29 00:28:27;;;;;;;4.57;1.67;;;14.90;99.90;;;;;;4957389;28;20186;-74
2022/08/29 00:30:53;;;;;;;2.67;1.87;;;14.80;99.90;;;;;;4956800;28;20508;-75
2022/08/29 00:33:18;;;;;;;3.47;1.97;;;14.70;99.90;;;;;;4957454;28;20236;-74
2022/08/29 00:35:45;;;;;;;2.93;1.80;;;14.70;99.90;;;;;;4957593;29;20215;-74
2022/08/29 00:38:13;;;;;;;4.77;2.00;;;14.60;99.90;;;;;;4955953;29;20203;-74
2022/08/29 00:40:51;;;;;;;2.50;1.70;;;14.50;99.90;;;;;;4955547;28;20444;-74
2022/08/29 00:43:23;;;;;;;6.20;2.30;;;14.50;99.90;;;;;;4957232;28;20456;-75
2022/08/29 00:46:27;;;;;;;3.63;1.80;;;14.40;99.90;;;;;;4957128;28;20765;-74
2022/08/29 00:48:59;;;;;;;9.43;1.77;;;14.30;99.90;;;;;;4926739;29;20904;-75
2022/08/29 00:51:25;;;;;;;3.53;1.83;;;14.20;99.90;;;;;;4956549;28;20974;-74
2022/08/29 00:53:57;;;;;;;5.30;1.60;;;14.10;99.90;;;;;;4955736;29;20396;-75
2022/08/29 00:56:23;;;;;;;2.87;1.80;;;14.10;99.90;;;;;;4956971;28;20185;-74
2022/08/29 00:58:54;;;;;;;5.23;1.77;;;14.10;99.90;;;;;;4957002;28;20435;-75
2022/08/29 01:01:21;;;;;;;3.23;1.80;;;14.00;99.90;;;;;;4956314;28;20543;-73
2022/08/29 01:03:47;;;;;;;3.20;1.50;;;14.00;99.90;;;;;;4955824;29;20804;-75
2022/08/29 01:06:13;;;;;;;3.30;1.60;;;13.90;99.90;;;;;;4956825;29;20449;-75
2022/08/29 01:08:39;;;;;;;4.43;2.10;;;13.80;99.90;;;;;;4955678;28;20428;-74
2022/08/29 01:13:52;;;;;;;1.80;1.50;;;13.70;99.90;;;;;;4955672;29;20462;-74
2022/08/29 01:16:19;;;;;;;2.07;1.73;;;13.60;99.90;;;;;;4956607;28;20453;-75
2022/08/29 01:18:50;;;;;;;2.23;1.57;;;13.60;99.90;;;;;;4956523;28;20457;-74
2022/08/29 01:21:21;;;;;;;3.20;1.90;;;13.50;99.90;;;;;;4955793;28;20418;-75
2022/08/29 01:24:27;;;;;;;5.53;1.70;;;13.50;99.90;;;;;;4956283;29;20752;-74
2022/08/29 01:26:52;;;;;;;3.70;1.40;;;13.50;99.90;;;;;;4943286;28;20391;-74
2022/08/29 01:29:18;;;;;;;3.80;2.13;;;13.40;99.90;;;;;;4956045;29;20390;-75
2022/08/29 01:31:47;;;;;;;3.00;1.77;;;13.40;99.90;;;;;;4955800;28;20201;-74
2022/08/29 01:34:14;;;;;;;3.10;1.90;;;13.30;99.90;;;;;;4956145;28;20268;-75
2022/08/29 01:36:51;;;;;;;11.60;2.27;;;13.20;99.90;;;;;;4956235;28;20478;-75
2022/08/29 01:39:18;;;;;;;4.20;2.00;;;13.20;99.90;;;;;;4955978;28;20391;-75
2022/08/29 01:41:44;;;;;;;2.27;1.63;;;13.10;99.90;;;;;;4955561;28;20461;-74
2022/08/29 01:44:14;;;;;;;3.60;2.10;;;13.10;99.90;;;;;;4956099;28;20437;-74
2022/08/29 01:46:40;;;;;;;3.43;1.90;;;13.10;99.90;;;;;;4955619;28;20412;-75
2022/08/29 01:49:08;;;;;;;4.93;2.60;;;13.10;99.90;;;;;;4954719;29;20487;-74
2022/08/29 01:51:36;;;;;;;4.50;2.10;;;13.10;99.90;;;;;;4955642;28;20454;-75
2022/08/29 01:54:04;;;;;;;4.70;1.80;;;13.00;99.90;;;;;;4955796;28;20421;-73
2022/08/29 01:56:32;;;;;;;6.57;1.77;;;13.00;99.90;;;;;;4955844;28;20399;-74
2022/08/29 01:59:00;;;;;;;2.07;1.70;;;12.80;99.90;;;;;;4955902;28;20386;-74
2022/08/29 02:01:33;;;;;;;5.93;2.10;;;12.80;99.90;;;;;;4955210;28;20531;-74
2022/08/29 02:03:59;;;;;;;4.60;1.73;;;12.80;99.90;;;;;;4955686;28;20399;-73
2022/08/29 02:06:26;;;;;;;8.07;2.43;;;12.70;99.90;;;;;;4955795;29;20487;-73
2022/08/29 02:08:52;;;;;;;5.20;2.00;;;12.70;99.90;;;;;;4954415;29;20193;-75
2022/08/29 02:11:18;;;;;;;4.40;2.17;;;12.70;99.90;;;;;;4953742;28;20761;-74
2022/08/29 02:13:47;;;;;;;3.93;2.10;;;12.70;99.90;;;;;;4954279;29;20415;-75
2022/08/29 02:16:14;;;;;;;4.87;1.83;;;12.70;99.90;;;;;;4955150;28;20407;-74
2022/08/29 02:18:42;;;;;;;3.80;1.70;;;12.60;99.90;;;;;;4955051;28;20466;-73
2022/08/29 02:21:10;;;;;;;2.60;1.80;;;12.50;99.90;;;;;;4937998;29;20478;-75
2022/08/29 02:23:37;;;;;;;2.17;1.73;;;12.40;99.90;;;;;;4955058;28;20540;-76
2022/08/29 02:26:05;;;;;;;2.10;1.60;;;12.40;99.90;;;;;;4955356;28;20392;-75
2022/08/29 02:28:31;;;;;;;3.57;2.03;;;12.30;99.90;;;;;;4955320;28;20417;-74
2022/08/29 02:30:58;;;;;;;2.10;1.80;;;12.40;99.90;;;;;;4953662;28;20804;-74
2022/08/29 02:33:25;;;;;;;4.27;2.17;;;12.30;99.90;;;;;;4938107;29;20932;-74
2022/08/29 02:35:52;;;;;;;4.03;2.33;;;12.30;99.90;;;;;;4953938;29;20802;-75
2022/08/29 02:38:18;;;;;;;7.00;1.83;;;12.30;99.90;;;;;;4955513;28;20759;-74
2022/08/29 02:40:45;;;;;;;3.00;2.00;;;12.30;99.90;;;;;;4954975;28;20444;-72
2022/08/29 02:43:11;;;;;;;2.47;2.23;;;12.20;99.90;;;;;;4955080;28;20473;-73
2022/08/29 02:45:39;;;;;;;4.23;1.93;;;12.20;99.90;;;;;;4954863;29;20487;-74
2022/08/29 02:48:06;;;;;;;3.63;1.67;;;12.10;99.90;;;;;;4955124;28;20167;-74
2022/08/29 02:50:33;;;;;;;4.23;2.20;;;12.10;99.90;;;;;;4954706;28;20407;-74
2022/08/29 02:52:58;;;;;;;3.60;1.73;;;12.10;99.90;;;;;;4955154;28;20860;-73
2022/08/29 02:55:24;;;;;;;2.80;1.83;;;12.00;99.90;;;;;;4955087;29;20441;-73
2022/08/29 02:57:51;;;;;;;2.83;1.70;;;12.00;99.90;;;;;;4954787;28;20196;-74
2022/08/29 03:00:22;;;;;;;5.07;2.00;;;12.00;99.90;;;;;;4954561;28;20522;-73
2022/08/29 03:02:47;;;;;;;3.53;2.30;;;11.60;99.90;;;;;;4954759;28;20859;-73
2022/08/29 03:05:15;;;;;;;4.93;2.00;;;11.60;99.90;;;;;;4954900;28;20399;-72
2022/08/29 03:07:41;;;;;;;2.37;1.60;;;11.60;99.90;;;;;;4954951;28;20185;-75
2022/08/29 03:10:08;;;;;;;3.40;2.00;;;11.60;99.90;;;;;;4953402;28;20396;-72
2022/08/29 03:12:35;;;;;;;2.93;1.70;;;11.70;99.90;;;;;;4955055;28;20396;-74
2022/08/29 03:15:02;;;;;;;2.23;1.83;;;11.50;99.90;;;;;;4955002;28;20436;-75
2022/08/29 03:17:28;;;;;;;6.77;2.30;;;11.60;99.90;;;;;;4953598;29;20478;-76
2022/08/29 03:19:53;;;;;;;2.73;1.90;;;11.60;99.90;;;;;;4954375;28;20532;-74
2022/08/29 03:22:19;;;;;;;6.07;2.20;;;11.60;99.90;;;;;;4953412;29;20563;-74
2022/08/29 03:24:45;;;;;;;3.57;1.97;;;11.60;99.90;;;;;;4953571;29;20189;-76
2022/08/29 03:27:10;;;;;;;5.83;2.30;;;11.70;99.90;;;;;;4955005;28;20548;-74
2022/08/29 03:29:37;;;;;;;3.40;2.30;;;11.80;99.90;;;;;;4954630;28;20191;-75
2022/08/29 03:32:03;;;;;;;4.60;2.30;;;11.80;99.90;;;;;;4955377;28;20233;-75
2022/08/29 03:34:29;;;;;;;8.93;2.10;;;11.80;99.90;;;;;;4958321;28;20402;-74
2022/08/29 03:36:56;;;;;;;4.00;2.13;;;11.70;99.90;;;;;;4958332;28;20394;-75
2022/08/29 03:39:22;;;;;;;3.43;1.70;;;11.70;99.90;;;;;;4958518;28;20522;-74
2022/08/29 03:41:48;;;;;;;2.60;2.03;;;11.70;99.90;;;;;;4957768;28;20443;-74
2022/08/29 03:44:13;;;;;;;3.13;1.97;;;11.70;99.90;;;;;;4958110;29;20324;-75
2022/08/29 03:46:39;;;;;;;4.27;2.23;;;11.70;99.90;;;;;;4957950;29;20398;-74
2022/08/29 03:49:06;;;;;;;6.00;2.30;;;11.70;99.90;;;;;;4957739;29;20186;-73
2022/08/29 03:51:37;;;;;;;5.20;2.20;;;11.60;99.90;;;;;;4957628;28;20201;-72
2022/08/29 03:54:04;;;;;;;4.60;2.23;;;11.60;99.90;;;;;;4958242;28;20499;-72
2022/08/29 03:56:30;;;;;;;4.87;2.20;;;11.50;99.90;;;;;;4958178;28;20413;-73
2022/08/29 03:58:55;;;;;;;5.67;2.10;;;11.50;99.90;;;;;;4957826;29;20939;-73
2022/08/29 04:01:23;;;;;;;4.27;2.40;;;11.40;99.90;;;;;;4956204;28;20322;-72
2022/08/29 04:03:49;;;;;;;3.20;2.00;;;11.40;99.90;;;;;;4956479;29;20239;-75
2022/08/29 04:06:15;;;;;;;2.83;2.00;;;11.40;99.90;;;;;;4957767;28;20462;-74
2022/08/29 04:08:42;;;;;;;3.40;1.90;;;11.30;99.90;;;;;;4957732;29;20421;-74
2022/08/29 04:11:13;;;;;;;5.40;2.60;;;11.40;99.90;;;;;;4956240;28;20290;-73
2022/08/29 04:13:39;;;;;;;5.73;2.30;;;11.40;99.90;;;;;;4956446;29;20473;-73
2022/08/29 04:16:13;;;;;;;3.67;2.80;;;11.30;99.90;;;;;;4957458;28;20463;-75
2022/08/29 04:18:39;;;;;;;4.23;1.90;;;11.30;99.90;;;;;;4956179;29;20399;-74
2022/08/29 04:21:06;;;;;;;3.90;2.23;;;11.30;99.90;;;;;;4957142;28;20585;-73
2022/08/29 04:23:33;;;;;;;4.70;2.20;;;11.20;99.90;;;;;;4957430;28;20465;-73
2022/08/29 04:25:59;;;;;;;2.87;2.10;;;11.20;99.90;;;;;;4957458;28;20421;-73
2022/08/29 04:28:26;;;;;;;5.47;1.90;;;11.10;99.90;;;;;;4955935;29;20429;-74
2022/08/29 04:30:53;;;;;;;3.60;2.00;;;11.10;99.90;;;;;;4956834;28;20448;-75
2022/08/29 04:33:24;;;;;;;2.03;1.80;;;11.10;99.90;;;;;;4955750;29;20439;-75
2022/08/29 04:35:51;;;;;;;3.03;1.87;;;11.10;99.90;;;;;;4955931;29;20430;-74
2022/08/29 04:38:17;;;;;;;2.60;1.93;;;11.00;99.90;;;;;;4956978;28;20439;-74
2022/08/29 04:40:43;;;;;;;3.33;2.20;;;11.00;99.90;;;;;;4955203;28;20944;-73
2022/08/29 04:43:09;;;;;;;4.33;2.70;;;11.00;99.90;;;;;;4956888;28;20460;-74
2022/08/29 04:45:36;;;;;;;4.47;2.50;;;11.00;99.90;;;;;;4955906;29;20443;-73
2022/08/29 04:48:03;;;;;;;11.53;2.57;;;11.10;99.90;;;;;;4956981;28;20409;-73
2022/08/29 04:50:29;;;;;;;3.07;2.50;;;11.10;99.90;;;;;;4955554;28;20437;-74
2022/08/29 04:52:55;;;;;;;4.30;2.00;;;11.20;99.90;;;;;;4956757;28;20463;-75
2022/08/29 04:55:22;;;;;;;8.37;2.60;;;11.20;99.90;;;;;;4956957;28;20479;-75
2022/08/29 04:57:50;;;;;;;6.80;2.73;;;11.10;99.90;;;;;;4956827;28;20420;-75
2022/08/29 05:00:19;;;;;;;6.70;2.43;;;11.20;99.90;;;;;;4955982;28;20488;-74
2022/08/29 05:02:45;;;;;;;10.60;2.73;;;11.20;99.90;;;;;;4956413;29;20505;-74
2022/08/29 05:05:13;;;;;;;3.40;2.37;;;11.20;99.90;;;;;;4956774;29;20445;-75
2022/08/29 05:07:39;;;;;;;6.40;2.67;;;11.20;99.90;;;;;;4955172;29;20504;-74
2022/08/29 05:10:16;;;;;;;3.70;2.40;;;11.20;99.90;;;;;;4956196;29;20504;-73
2022/08/29 05:12:42;;;;;;;4.40;2.43;;;11.20;99.90;;;;;;4956599;28;20419;-74
2022/08/29 05:15:08;;;;;;;3.47;2.70;;;11.30;99.90;;;;;;4955328;29;20496;-75
2022/08/29 05:17:34;;;;;;;4.53;2.53;;;11.30;99.90;;;;;;4956542;29;20915;-75
2022/08/29 05:20:03;;;;;;;8.20;2.90;;;11.30;99.90;;;;;;4956115;29;20433;-73
2022/08/29 05:22:29;;;;;;;4.80;2.67;;;11.40;99.90;;;;;;4956165;29;20495;-74
2022/08/29 05:24:55;;;;;;;4.00;2.50;;;11.40;99.90;;;;;;4954771;29;20449;-73
2022/08/29 05:27:22;;;;;;;9.73;2.60;;;11.30;99.90;;;;;;4956233;29;20184;-73
2022/08/29 05:29:50;;;;;;;2.30;2.10;;;11.30;99.90;;;;;;4955845;29;20916;-73
2022/08/29 05:32:18;;;;;;;10.60;3.23;;;11.40;99.90;;;;;;4956081;29;20504;-75
2022/08/29 05:34:45;;;;;;;10.70;2.60;;;11.30;99.90;;;;;;4955806;29;20402;-75
2022/08/29 05:37:14;;;;;;;3.93;2.47;;;11.40;99.90;;;;;;4955805;29;20429;-74
2022/08/29 05:39:40;;;;;;;4.17;2.20;;;11.40;99.90;;;;;;4956002;29;20402;-73
2022/08/29 05:42:08;;;;;;;6.60;2.53;;;11.50;99.90;;;;;;4955999;29;20555;-73
2022/08/29 05:44:34;;;;;;;6.17;2.60;;;11.60;99.90;;;;;;4956001;29;20426;-73
2022/08/29 05:47:02;;;;;;;4.87;3.40;;;11.70;99.90;;;;;;4955841;29;20476;-74
2022/08/29 05:49:28;;;;;;;6.03;2.80;;;11.90;99.90;;;;;;4955867;29;20416;-73
2022/08/29 05:51:55;;;;;;;7.47;2.23;;;11.80;99.90;;;;;;4955427;29;20524;-73
2022/08/29 05:54:23;;;;;;;4.63;2.40;;;11.70;99.90;;;;;;4954075;28;20275;-73
2022/08/29 05:56:49;;;;;;;3.57;2.70;;;11.70;99.90;;;;;;4955622;29;20422;-76
2022/08/29 05:59:18;;;;;;;7.80;3.10;;;11.80;99.90;;;;;;4955576;29;20428;-74
2022/08/29 06:01:45;;;;;;;5.27;2.70;;;11.80;99.90;;;;;;4954391;29;20480;-74
2022/08/29 06:04:12;;;;;;;4.53;2.90;;;11.90;99.90;;;;;;4954593;29;20980;-74
2022/08/29 06:06:39;;;;;;;5.30;2.67;;;12.10;99.90;;;;;;4955658;29;20472;-74
2022/08/29 06:09:05;;;;;;;3.70;2.70;;;12.40;99.90;;;;;;4954276;29;20442;-76
2022/08/29 06:11:31;;;;;;;4.47;2.50;;;12.60;99.90;;;;;;4955076;29;20449;-73
2022/08/29 06:13:58;;;;;;;6.83;3.30;;;12.90;99.90;;;;;;4955412;29;20185;-73
2022/08/29 06:16:26;;;;;;;5.30;2.77;;;12.80;99.90;;;;;;4955331;29;20460;-74
2022/08/29 06:18:52;;;;;;;5.43;3.50;;;13.00;99.90;;;;;;4955224;29;20453;-73
2022/08/29 06:21:19;;;;;;;6.23;2.73;;;13.20;99.90;;;;;;4954831;28;20442;-73
2022/08/29 06:23:45;;;;;;;6.70;2.90;;;13.30;99.90;;;;;;4953776;29;21065;-75
2022/08/29 06:26:12;;;;;;;7.30;3.03;;;13.50;99.90;;;;;;4955312;29;20433;-75
2022/08/29 06:28:44;;;;;;;3.83;2.37;;;13.70;99.90;;;;;;4955086;29;20428;-73
2022/08/29 06:31:17;;;;;;;4.90;2.37;;;13.80;99.90;;;;;;4954781;29;20834;-74
2022/08/29 06:33:43;;;;;;;6.50;2.53;;;13.90;99.90;;;;;;4955056;29;20450;-72
2022/08/29 06:36:09;;;;;;;5.60;2.90;;;13.90;99.90;;;;;;4955080;29;20840;-74
2022/08/29 06:38:35;;;;;;;6.70;2.57;;;14.00;99.90;;;;;;4955067;28;20464;-74
2022/08/29 06:41:13;;;;;;;8.70;3.23;;;14.20;99.90;;;;;;4953437;28;20455;-74
2022/08/29 06:43:39;;;;;;;4.47;2.80;;;14.10;99.90;;;;;;4953564;29;20476;-74
2022/08/29 06:46:06;;;;;;;7.67;3.80;;;13.90;99.90;;;;;;4954961;29;20514;-74
2022/08/29 06:48:32;;;;;;;5.93;2.80;;;13.80;99.90;;;;;;4953890;29;20884;-74
2022/08/29 06:51:01;;;;;;;10.17;3.77;;;13.90;99.90;;;;;;4954599;29;20410;-74
2022/08/29 06:53:27;;;;;;;3.43;2.90;;;14.10;99.90;;;;;;4955029;29;20665;-74
2022/08/29 06:55:53;;;;;;;7.40;2.87;;;14.30;99.90;;;;;;4954559;29;20433;-74
2022/08/29 06:58:19;;;;;;;5.90;3.10;;;14.30;99.90;;;;;;4955036;29;20484;-74
2022/08/29 07:00:45;;;;;;;3.97;3.07;;;14.50;99.90;;;;;;4954550;29;20445;-75
2022/08/29 07:03:12;;;;;;;3.97;2.80;;;14.60;99.90;;;;;;4954958;29;20211;-75
2022/08/29 07:05:38;;;;;;;4.67;3.13;;;14.60;99.90;;;;;;4956677;28;20424;-73
2022/08/29 07:08:03;;;;;;;5.90;3.37;;;14.60;99.90;;;;;;4958882;29;20412;-73
2022/08/29 07:10:29;;;;;;;7.93;3.27;;;14.70;99.90;;;;;;4958203;29;20244;-73
2022/08/29 07:12:55;;;;;;;7.43;3.50;;;14.90;99.90;;;;;;4958577;29;20189;-74
2022/08/29 07:15:22;;;;;;;3.73;2.47;;;14.90;99.90;;;;;;4958674;29;20193;-74
2022/08/29 07:17:49;;;;;;;7.90;2.87;;;15.00;99.90;;;;;;4958488;29;20583;-74
2022/08/29 07:20:15;;;;;;;5.23;3.80;;;15.20;99.90;;;;;;4958301;29;20512;-75
2022/08/29 07:22:41;;;;;;;5.10;2.10;;;15.30;99.90;;;;;;4958315;29;20946;-74
2022/08/29 07:25:09;;;;;;;10.40;2.57;;;15.40;99.90;;;;;;4957149;29;20399;-73
2022/08/29 07:27:35;;;;;;;8.50;3.23;;;15.60;99.90;;;;;;4958298;29;20588;-73
2022/08/29 07:30:02;;;;;;;6.40;2.60;;;15.80;99.90;;;;;;4956575;29;20403;-75
2022/08/29 07:32:28;;;;;;;7.03;3.23;;;16.00;99.90;;;;;;4958246;29;20400;-74
2022/08/29 07:34:53;;;;;;;5.90;3.50;;;16.20;99.90;;;;;;4958229;29;20421;-75
2022/08/29 07:37:19;;;;;;;9.20;2.30;;;16.40;99.90;;;;;;4958107;29;20395;-73
2022/08/29 07:39:45;;;;;;;4.97;2.10;;;16.30;99.90;;;;;;4956402;29;20186;-76
2022/08/29 07:42:10;;;;;;;10.37;3.27;;;16.50;99.90;;;;;;4957761;29;20216;-73
2022/08/29 07:44:36;;;;;;;5.40;2.60;;;16.50;99.90;;;;;;4957340;29;20200;-75
2022/08/29 07:47:02;;;;;;;6.53;2.63;;;16.60;99.90;;;;;;4957560;29;20178;-74
2022/08/29 07:49:30;;;;;;;4.50;2.53;;;16.80;99.90;;;;;;4956348;29;20182;-73
2022/08/29 07:51:56;;;;;;;4.77;2.40;;;17.00;99.90;;;;;;4954519;29;20791;-74
2022/08/29 07:54:22;;;;;;;3.83;2.17;;;17.10;99.90;;;;;;4957926;29;20452;-74
2022/08/29 07:56:50;;;;;;;9.47;2.50;;;17.30;99.90;;;;;;4957527;29;20653;-74
2022/08/29 07:59:18;;;;;;;9.30;2.50;;;17.30;99.90;;;;;;4957362;29;20394;-73
2022/08/29 08:01:44;;;;;;;11.20;3.17;;;17.30;99.90;;;;;;4956774;28;20419;-74
2022/08/29 08:04:10;;;;;;;6.97;2.83;;;17.30;99.90;;;;;;4957590;28;20759;-74
2022/08/29 08:06:37;;;;;;;3.67;2.27;;;17.40;99.90;;;;;;4957349;29;20399;-73
2022/08/29 08:09:04;;;;;;;7.70;2.40;;;17.70;99.90;;;;;;4957215;28;20524;-77
2022/08/29 08:11:30;;;;;;;7.70;2.80;;;17.60;99.90;;;;;;4954220;28;20487;-74
2022/08/29 08:13:57;;;;;;;6.50;3.07;;;17.70;99.90;;;;;;4956998;29;20929;-74
2022/08/29 08:16:25;;;;;;;3.10;2.50;;;17.90;99.90;;;;;;4956298;28;20792;-73
2022/08/29 08:18:51;;;;;;;6.53;2.57;;;17.90;99.90;;;;;;4957527;28;20419;-74
2022/08/29 08:21:16;;;;;;;3.77;2.07;;;17.90;99.90;;;;;;4957129;28;20810;-74
2022/08/29 08:23:42;;;;;;;4.57;2.37;;;18.20;99.90;;;;;;4957338;28;20451;-74
2022/08/29 08:26:10;;;;;;;9.23;1.93;;;18.70;99.90;;;;;;4956273;29;20228;-75
2022/08/29 08:28:36;;;;;;;5.80;1.90;;;19.00;99.90;;;;;;4957620;28;20264;-73
2022/08/29 08:31:05;;;;;;;5.80;2.07;;;19.30;99.90;;;;;;4956900;28;20516;-74
2022/08/29 08:33:30;;;;;;;3.67;2.10;;;19.50;99.90;;;;;;4937790;29;20411;-74
2022/08/29 08:35:56;;;;;;;5.83;2.10;;;20.30;99.90;;;;;;4936910;29;20537;-74
2022/08/29 08:38:22;;;;;;;4.70;1.70;;;20.70;99.90;;;;;;4936707;29;20185;-79
2022/08/29 08:41:09;;;;;;;5.40;1.77;;;21.20;99.90;;;;;;4937509;29;20198;-77
2022/08/29 08:43:50;;;;;;;5.47;2.90;;;20.70;99.90;;;;;;4937973;29;20857;-75
2022/08/29 08:46:18;;;;;;;4.53;1.73;;;21.50;99.90;;;;;;4946640;29;21004;-74
2022/08/29 08:48:46;;;;;;;5.37;1.90;;;22.20;99.90;;;;;;4956935;29;20456;-76
2022/08/29 08:51:20;;;;;;;5.07;2.20;;;22.60;99.90;;;;;;4956538;29;20439;-75
2022/08/29 08:53:49;;;;;;;5.30;2.37;;;22.80;99.90;;;;;;4957222;29;20405;-76
2022/08/29 08:56:31;;;;;;;4.03;2.03;;;23.40;99.90;;;;;;4957035;29;20905;-74
2022/08/29 08:59:06;;;;;;;7.40;2.67;;;22.80;99.90;;;;;;4956829;29;20777;-77
2022/08/29 09:01:36;;;;;;;4.57;1.90;;;22.50;99.90;;;;;;4956201;28;20431;-75
2022/08/29 09:04:18;;;;;;;5.77;2.37;;;23.20;99.90;;;;;;4956824;29;20795;-74
2022/08/29 09:07:00;;;;;;;5.50;2.00;;;23.20;99.90;;;;;;4956584;29;20413;-78
2022/08/29 09:09:37;;;;;;;4.87;2.13;;;23.50;99.90;;;;;;4956749;29;20401;-78
2022/08/29 09:12:34;;;;;;;5.00;2.20;;;23.40;99.90;;;;;;4956318;29;20440;-74
2022/08/29 09:15:11;;;;;;;3.70;1.70;;;23.60;99.90;;;;;;4956485;29;20503;-75
2022/08/29 09:17:46;;;;;;;4.30;2.20;;;23.70;99.90;;;;;;4956546;29;20747;-76
2022/08/29 09:20:34;;;;;;;5.57;2.03;;;24.80;99.90;;;;;;4956097;28;20435;-74
2022/08/29 09:22:59;;;;;;;5.00;1.70;;;24.70;99.90;;;;;;4955673;28;20916;-76
2022/08/29 09:25:27;;;;;;;4.93;2.33;;;23.00;99.90;;;;;;4956336;29;20500;-76
2022/08/29 09:27:53;;;;;;;5.67;2.20;;;24.00;99.90;;;;;;4954527;28;20204;-76
2022/08/29 09:30:25;;;;;;;6.00;2.10;;;25.10;99.90;;;;;;4955337;29;20471;-77
2022/08/29 09:33:02;;;;;;;3.20;1.97;;;25.50;99.90;;;;;;4956032;29;20177;-75
2022/08/29 09:35:35;;;;;;;5.00;1.90;;;25.30;99.90;;;;;;4956232;29;20503;-75
2022/08/29 09:38:24;;;;;;;3.30;2.00;;;24.60;99.90;;;;;;4955965;29;20448;-75
2022/08/29 09:40:59;;;;;;;2.40;1.80;;;25.30;99.90;;;;;;4955332;28;20472;-75
2022/08/29 09:43:47;;;;;;;3.13;1.93;;;25.80;99.90;;;;;;4955657;29;20475;-74
2022/08/29 09:46:25;;;;;;;1.97;1.77;;;25.40;99.90;;;;;;4955838;29;21012;-73
2022/08/29 09:48:56;;;;;;;2.13;1.70;;;25.70;99.90;;;;;;4955587;29;20408;-74
2022/08/29 09:51:28;;;;;;;1.90;1.60;;;25.50;99.90;;;;;;4955356;29;20434;-77
2022/08/29 09:54:35;;;;;;;4.70;2.33;;;25.90;99.90;;;;;;4955860;29;20468;-75
2022/08/29 09:57:27;;;;;;;3.67;2.47;;;25.40;99.90;;;;;;4952602;29;20439;-76
2022/08/29 10:00:16;;;;;;;3.30;1.60;;;25.00;99.90;;;;;;4955295;29;20916;-76
2022/08/29 10:02:42;;;;;;;7.60;1.87;;;25.30;99.90;;;;;;4955453;29;20457;-76
2022/08/29 10:05:24;;;;;;;2.73;1.93;;;23.50;99.90;;;;;;4955491;29;20463;-76
2022/08/29 10:07:51;;;;;;;5.53;2.00;;;24.40;99.90;;;;;;4955473;29;20408;-77
2022/08/29 10:10:22;;;;;;;5.80;2.30;;;25.20;99.90;;;;;;4953577;29;21015;-74
2022/08/29 10:13:03;;;;;;;4.73;2.20;;;26.10;99.90;;;;;;4954917;29;20487;-76
2022/08/29 10:16:06;;;;;;;2.00;1.60;;;25.50;99.90;;;;;;4954292;29;20995;-77
2022/08/29 10:18:50;;;;;;;3.83;2.10;;;25.00;99.90;;;;;;4955398;29;20412;-75
2022/08/29 10:21:28;;;;;;;5.10;2.10;;;24.00;99.90;;;;;;4955065;28;20459;-75
2022/08/29 10:23:59;;;;;;;4.13;2.10;;;24.50;99.90;;;;;;4955375;28;20544;-76
2022/08/29 10:26:49;;;;;;;5.00;1.90;;;24.20;99.90;;;;;;4955406;29;20413;-78
2022/08/29 10:29:17;;;;;;;5.47;2.07;;;24.70;99.90;;;;;;4953880;29;20429;-75
2022/08/29 10:32:22;;;;;;;8.47;2.20;;;24.10;99.90;;;;;;4954706;28;20460;-75
2022/08/29 10:35:13;;;;;;;9.87;2.10;;;24.00;99.90;;;;;;4954580;28;20787;-76
2022/08/29 10:37:57;;;;;;;3.27;2.27;;;24.90;99.90;;;;;;4955176;28;20478;-74
2022/08/29 10:40:29;;;;;;;2.57;1.67;;;25.70;99.90;;;;;;4953137;28;20489;-74
2022/08/29 10:43:40;;;;;;;3.77;1.93;;;26.00;99.90;;;;;;4955053;29;20452;-75
2022/08/29 10:46:31;;;;;;;2.93;2.00;;;26.30;99.10;;;;;;4940417;28;20444;-74
2022/08/29 10:49:32;;;;;;;3.77;2.03;;;26.50;96.90;;;;;;4954943;29;20830;-73
2022/08/29 10:52:10;;;;;;;3.93;1.67;;;24.90;98.90;;;;;;4954446;28;20427;-73
2022/08/29 10:55:15;;;;;;;5.83;2.10;;;24.70;99.80;;;;;;4954829;28;20404;-75
2022/08/29 10:58:19;;;;;;;2.67;1.87;;;26.00;99.90;;;;;;4925125;28;20408;-73
2022/08/29 11:00:55;;;;;;;4.97;1.80;;;26.00;98.30;;;;;;4895353;29;20467;-73
2022/08/29 11:03:34;;;;;;;6.93;2.33;;;25.00;99.60;;;;;;4945463;29;20475;-73
2022/08/29 11:06:09;;;;;;;2.63;1.83;;;25.10;99.50;;;;;;4954991;28;20535;-75
2022/08/29 11:08:45;;;;;;;2.00;1.37;;;25.40;99.10;;;;;;4954854;28;20412;-73
2022/08/29 11:11:18;;;;;;;2.90;1.83;;;26.20;99.50;;;;;;4954036;28;20822;-74
2022/08/29 11:13:49;;;;;;;4.50;1.97;;;26.30;97.40;;;;;;4954646;29;20428;-74
2022/08/29 11:16:27;;;;;;;5.40;2.03;;;26.30;96.40;;;;;;4954732;29;20404;-76
2022/08/29 11:19:08;;;;;;;3.93;2.30;;;27.20;95.40;;;;;;4954847;29;20499;-74
2022/08/29 11:21:43;;;;;;;2.00;1.80;;;25.60;95.80;;;;;;4954347;29;20909;-77
2022/08/29 11:24:10;;;;;;;4.30;2.20;;;25.70;95.60;;;;;;4954808;29;20439;-74
2022/08/29 11:26:35;;;;;;;6.20;2.50;;;25.10;96.80;;;;;;4954506;29;20757;-75
2022/08/29 11:29:03;;;;;;;3.10;2.17;;;25.00;95.40;;;;;;4954176;29;20416;-75
2022/08/29 11:31:51;;;;;;;2.80;1.90;;;25.60;94.80;;;;;;4954600;29;20227;-77
2022/08/29 11:34:34;;;;;;;4.50;1.97;;;26.10;95.60;;;;;;4953361;29;20817;-76
2022/08/29 11:37:18;;;;;;;2.97;2.03;;;27.40;93.80;;;;;;4954500;29;20404;-75
2022/08/29 11:40:24;;;;;;;4.27;2.00;;;27.90;91.00;;;;;;4953948;29;20405;-74
2022/08/29 11:42:52;;;;;;;4.17;1.97;;;27.50;90.70;;;;;;4953122;29;20857;-74
2022/08/29 11:45:31;;;;;;;6.80;1.83;;;28.20;89.50;;;;;;4954278;29;20937;-73
2022/08/29 11:48:07;;;;;;;3.60;1.73;;;28.60;85.90;;;;;;4954292;29;20412;-74
2022/08/29 11:50:37;;;;;;;3.47;2.20;;;29.10;82.90;;;;;;4952893;29;20519;-76
2022/08/29 11:53:18;;;;;;;3.23;1.70;;;28.60;79.90;;;;;;4956960;29;20416;-73
2022/08/29 11:56:13;;;;;;;2.53;1.93;;;27.90;82.60;;;;;;4957955;29;20425;-81
2022/08/29 11:58:41;;;;;;;3.00;2.20;;;28.40;80.60;;;;;;4957837;29;20448;-74
2022/08/29 12:01:36;;;;;;;3.70;2.10;;;28.30;85.10;;;;;;4957571;29;20436;-76
2022/08/29 12:04:05;;;;;;;2.53;1.80;;;28.90;82.10;;;;;;4957639;29;20506;-76
2022/08/29 12:06:37;;;;;;;2.40;1.70;;;29.10;80.90;;;;;;4957851;29;20417;-74
2022/08/29 12:09:11;;;;;;;3.07;1.80;;;29.40;81.40;;;;;;4957907;29;20456;-77
2022/08/29 12:12:07;;;;;;;4.83;1.77;;;29.40;79.50;;;;;;4957297;29;20432;-77
2022/08/29 12:14:38;;;;;;;5.13;2.30;;;29.60;75.60;;;;;;4956756;29;20431;-78
2022/08/29 12:17:07;;;;;;;4.20;2.30;;;28.90;76.60;;;;;;4956313;29;20909;-77
2022/08/29 12:20:08;;;;;;;3.47;2.40;;;28.30;76.80;;;;;;4957686;29;20885;-76
2022/08/29 12:23:05;;;;;;;4.47;2.30;;;28.60;79.00;;;;;;4957583;29;20502;-76
2022/08/29 12:25:52;;;;;;;3.03;2.20;;;28.40;77.50;;;;;;4945410;29;21022;-75
2022/08/29 12:28:24;;;;;;;5.70;2.20;;;27.70;78.90;;;;;;4957374;29;20412;-75
2022/08/29 12:31:04;;;;;;;3.63;1.73;;;28.30;79.60;;;;;;4956876;29;20945;-76
2022/08/29 12:34:14;;;;;;;4.23;1.90;;;29.20;78.70;;;;;;4957317;29;20409;-75
2022/08/29 12:37:00;;;;;;;12.07;2.80;;;30.40;75.30;;;;;;4942319;28;20425;-77
2022/08/29 12:39:54;;;;;;;8.70;1.90;;;31.40;69.90;;;;;;4957245;29;20412;-77
2022/08/29 12:42:45;;;;;;;4.17;2.00;;;30.60;68.80;;;;;;4955589;29;20984;-78
2022/08/29 12:45:25;;;;;;;2.43;1.63;;;30.70;65.70;;;;;;4956989;29;20435;-75
2022/08/29 12:47:55;;;;;;;5.10;2.53;;;30.00;66.10;;;;;;4956991;29;20466;-77
2022/08/29 12:50:27;;;;;;;2.07;1.50;;;30.20;67.10;;;;;;4956561;29;20436;-74
2022/08/29 12:53:15;;;;;;;4.10;2.17;;;30.20;68.80;;;;;;4956928;29;20409;-77
2022/08/29 12:55:45;;;;;;;3.87;2.00;;;30.20;64.40;;;;;;4957208;28;20759;-77
2022/08/29 12:58:13;;;;;;;2.30;1.83;;;30.20;66.30;;;;;;4955749;29;20421;-76
2022/08/29 13:00:40;;;;;;;4.77;2.20;;;30.40;65.30;;;;;;4956119;29;20443;-75
2022/08/29 13:03:09;;;;;;;8.10;2.50;;;30.50;64.60;;;;;;4956532;28;20555;-77
2022/08/29 13:05:38;;;;;;;2.83;2.00;;;30.60;63.90;;;;;;4956641;29;20528;-75
2022/08/29 13:08:11;;;;;;;2.83;2.23;;;30.70;62.30;;;;;;4956552;29;20421;-77
2022/08/29 13:10:39;;;;;;;4.13;2.80;;;30.70;61.80;;;;;;4956332;28;20449;-75